Terminal Aerodrome Forecast
Issued by NWS

Home | Current Version | Previous Version | Text Only | Print | Product List | Glossary On
Versions: 1 2 3 4 5 6 7 8 9 10 11 12 13 14 15 16 17 18 19
000
FTUS43 KGRR 300700 AAA
TAFJXN
TAF AMD
KJXN 300752Z 3008/0106 35008KT P6SM OVC006
     FM301100 01008KT P6SM BKN015
     FM301800 35008KT P6SM BKN025
     FM302200 33008KT P6SM BKN035
     FM010000 VRB03KT P6SM SCT035=

USA.gov is the U.S. government's official web portal to all federal, state and local government web resources and services.